TimeEST,TemperatureF,Dew PointF,Humidity,Sea Level PressureIn,VisibilityMPH,Wind Direction,Wind SpeedMPH,Gust SpeedMPH,PrecipitationIn,Events,Conditions,WindDirDegrees,DateUTC
12:15 AM,37.4,37.4,100,29.87,0.5,Calm,Calm,-,N/A,Fog,Fog,0,2013-02-24 05:15:00
12:35 AM,35.6,35.6,100,29.87,1.2,Calm,Calm,-,N/A,,Mostly Cloudy,0,2013-02-24 05:35:00
12:55 AM,37.4,37.4,100,29.88,1.8,West,3.5,-,N/A,,Mist,270,2013-02-24 05:55:00
1:15 AM,37.4,37.4,100,29.89,5.0,WNW,4.6,-,N/A,,Clear,290,2013-02-24 06:15:00
1:55 AM,37.4,37.4,100,29.88,1.2,SW,3.5,-,N/A,,Scattered Clouds,220,2013-02-24 06:55:00
2:15 AM,37.4,37.4,100,29.88,1.8,WSW,3.5,-,N/A,,Mist,250,2013-02-24 07:15:00
2:35 AM,37.4,37.4,100,29.87,0.5,West,3.5,-,N/A,Fog,Fog,280,2013-02-24 07:35:00
2:55 AM,37.4,37.4,100,29.88,7.0,NW,6.9,-,N/A,,Scattered Clouds,310,2013-02-24 07:55:00
3:15 AM,35.6,35.6,100,29.87,2.0,Calm,Calm,-,N/A,,Scattered Clouds,0,2013-02-24 08:15:00
3:35 AM,35.6,35.6,100,29.87,1.2,Calm,Calm,-,N/A,,Scattered Clouds,0,2013-02-24 08:35:00
3:55 AM,33.8,33.8,100,29.86,1.0,Calm,Calm,-,N/A,,Mostly Cloudy,0,2013-02-24 08:55:00
4:15 AM,33.8,33.8,100,29.87,0.8,Calm,Calm,-,N/A,,Mostly Cloudy,0,2013-02-24 09:15:00
4:35 AM,32.0,32.0,100,29.88,0.5,WSW,4.6,-,N/A,Fog,Fog,250,2013-02-24 09:35:00
4:55 AM,33.8,33.8,100,29.89,7.0,West,8.1,-,N/A,,Scattered Clouds,280,2013-02-24 09:55:00
5:15 AM,39.2,37.4,93,29.89,10.0,WNW,4.6,-,N/A,,Clear,300,2013-02-24 10:15:00
5:35 AM,41.0,35.6,81,29.90,10.0,NW,4.6,-,N/A,,Clear,310,2013-02-24 10:35:00
5:55 AM,41.0,35.6,81,29.91,10.0,NW,8.1,-,N/A,,Clear,310,2013-02-24 10:55:00
6:15 AM,42.8,33.8,70,29.91,10.0,NW,8.1,-,N/A,,Clear,320,2013-02-24 11:15:00
6:35 AM,42.8,33.8,70,29.93,10.0,NW,5.8,-,N/A,,Clear,320,2013-02-24 11:35:00
6:55 AM,42.8,32.0,66,29.93,10.0,WNW,5.8,-,N/A,,Clear,300,2013-02-24 11:55:00
7:15 AM,42.8,32.0,66,29.95,10.0,NW,4.6,-,N/A,,Clear,310,2013-02-24 12:15:00
7:55 AM,41.0,32.0,70,29.97,10.0,Calm,Calm,-,N/A,,Clear,0,2013-02-24 12:55:00
8:15 AM,42.8,33.8,70,29.98,10.0,Calm,Calm,-,N/A,,Clear,0,2013-02-24 13:15:00
8:35 AM,44.6,32.0,61,29.98,10.0,Calm,Calm,-,N/A,,Clear,0,2013-02-24 13:35:00
8:55 AM,44.6,32.0,61,29.99,10.0,WNW,5.8,-,N/A,,Clear,300,2013-02-24 13:55:00
9:15 AM,46.4,32.0,57,30.00,10.0,Calm,Calm,-,N/A,,Clear,0,2013-02-24 14:15:00
9:35 AM,48.2,32.0,54,30.00,10.0,West,4.6,-,N/A,,Clear,280,2013-02-24 14:35:00
9:55 AM,50.0,32.0,50,30.01,10.0,Calm,Calm,-,N/A,,Clear,0,2013-02-24 14:55:00
10:15 AM,50.0,32.0,50,30.00,10.0,SSW,4.6,-,N/A,,Clear,200,2013-02-24 15:15:00
10:35 AM,50.0,32.0,50,30.00,10.0,NW,5.8,-,N/A,,Clear,320,2013-02-24 15:35:00
10:55 AM,51.8,28.4,41,30.00,10.0,WNW,12.7,16.1,N/A,,Clear,300,2013-02-24 15:55:00
11:15 AM,51.8,28.4,41,30.00,10.0,NNW,9.2,-,N/A,,Clear,330,2013-02-24 16:15:00
11:35 AM,51.8,28.4,41,30.00,10.0,WNW,5.8,-,N/A,,Clear,290,2013-02-24 16:35:00
11:55 AM,53.6,26.6,35,29.99,10.0,NW,10.4,17.3,N/A,,Clear,310,2013-02-24 16:55:00
12:15 PM,53.6,26.6,35,29.98,10.0,WNW,4.6,20.7,N/A,,Clear,300,2013-02-24 17:15:00
12:35 PM,55.4,26.6,33,29.98,10.0,WNW,11.5,18.4,N/A,,Clear,290,2013-02-24 17:35:00
12:55 PM,55.4,26.6,33,29.97,10.0,NW,13.8,20.7,N/A,,Clear,320,2013-02-24 17:55:00
1:15 PM,57.2,26.6,31,29.97,10.0,WNW,12.7,20.7,N/A,,Clear,300,2013-02-24 18:15:00
1:35 PM,57.2,26.6,31,29.96,10.0,West,11.5,-,N/A,,Clear,280,2013-02-24 18:35:00
1:55 PM,57.2,24.8,29,29.96,10.0,WNW,12.7,21.9,N/A,,Clear,300,2013-02-24 18:55:00
2:15 PM,59.0,24.8,27,29.96,10.0,West,6.9,-,N/A,,Clear,280,2013-02-24 19:15:00
2:35 PM,59.0,24.8,27,29.96,10.0,NW,8.1,17.3,N/A,,Clear,320,2013-02-24 19:35:00
2:55 PM,59.0,24.8,27,29.96,10.0,NW,8.1,16.1,N/A,,Clear,310,2013-02-24 19:55:00
3:15 PM,59.0,23.0,25,29.96,10.0,NW,9.2,17.3,N/A,,Clear,320,2013-02-24 20:15:00
3:35 PM,59.0,23.0,25,29.96,10.0,NW,12.7,18.4,N/A,,Clear,310,2013-02-24 20:35:00
3:55 PM,59.0,23.0,25,29.96,10.0,NNW,6.9,-,N/A,,Clear,330,2013-02-24 20:55:00
4:15 PM,57.2,23.0,27,29.97,10.0,NW,10.4,16.1,N/A,,Clear,310,2013-02-24 21:15:00
4:35 PM,55.4,23.0,29,29.97,10.0,NW,10.4,-,N/A,,Clear,310,2013-02-24 21:35:00
4:55 PM,55.4,23.0,29,29.98,10.0,NNW,8.1,-,N/A,,Clear,340,2013-02-24 21:55:00
5:15 PM,55.4,24.8,31,29.98,10.0,NW,6.9,-,N/A,,Clear,310,2013-02-24 22:15:00
5:35 PM,53.6,23.0,30,29.99,10.0,NW,8.1,-,N/A,,Clear,320,2013-02-24 22:35:00
5:55 PM,53.6,24.8,33,30.00,10.0,NW,5.8,-,N/A,,Clear,320,2013-02-24 22:55:00
6:15 PM,51.8,24.8,35,30.01,10.0,NW,6.9,-,N/A,,Clear,320,2013-02-24 23:15:00
6:55 PM,50.0,24.8,37,30.03,10.0,NW,5.8,-,N/A,,Clear,320,2013-02-24 23:55:00
7:15 PM,46.4,26.6,46,30.04,10.0,WNW,4.6,-,N/A,,Clear,300,2013-02-25 00:15:00
7:35 PM,46.4,24.8,43,30.05,10.0,NW,4.6,-,N/A,,Clear,310,2013-02-25 00:35:00
7:55 PM,46.4,24.8,43,30.05,10.0,NNW,6.9,-,N/A,,Clear,330,2013-02-25 00:55:00
8:15 PM,44.6,24.8,46,30.07,10.0,NNW,4.6,-,N/A,,Clear,330,2013-02-25 01:15:00
8:35 PM,44.6,23.0,43,30.07,10.0,NNW,6.9,-,N/A,,Clear,340,2013-02-25 01:35:00
8:55 PM,44.6,23.0,43,30.08,10.0,NNW,6.9,-,N/A,,Clear,340,2013-02-25 01:55:00
9:15 PM,44.6,21.2,39,30.08,10.0,NNW,8.1,-,N/A,,Clear,330,2013-02-25 02:15:00
9:35 PM,44.6,21.2,39,30.08,10.0,NNW,8.1,-,N/A,,Clear,340,2013-02-25 02:35:00
9:55 PM,44.6,21.2,39,30.08,10.0,NNW,6.9,-,N/A,,Clear,330,2013-02-25 02:55:00
10:15 PM,42.8,21.2,42,30.08,10.0,NNW,9.2,-,N/A,,Clear,330,2013-02-25 03:15:00
10:35 PM,42.8,21.2,42,30.07,10.0,NNW,9.2,-,N/A,,Clear,340,2013-02-25 03:35:00
10:55 PM,42.8,21.2,42,30.08,10.0,NW,3.5,-,N/A,,Clear,310,2013-02-25 03:55:00
11:15 PM,42.8,21.2,42,30.07,10.0,NNW,5.8,-,N/A,,Clear,330,2013-02-25 04:15:00
11:35 PM,41.0,21.2,45,30.08,10.0,North,3.5,-,N/A,,Clear,350,2013-02-25 04:35:00
11:55 PM,41.0,21.2,45,30.08,10.0,North,6.9,-,N/A,,Clear,360,2013-02-25 04:55:00